Time;durP1;ratioP1;P1;durP2;ratioP2;P2;SDS_P1;SDS_P2;PMS_P1;PMS_P2;Temp;Humidity;BMP_temperature;BMP_pressure;BME280_temperature;BME280_humidity;BME280_pressure;Samples;Min_cycle;Max_cycle;Signal;HPM_P1;HPM_P2
2021/06/22 00:01:48;;;;;;;1.02;0.90;;;;;;;12.88;74.07;100592.91;6217955;23;20011;-75
2021/06/22 00:04:13;;;;;;;2.00;1.15;;;;;;;12.87;73.59;100590.44;6241664;23;20000;-72
2021/06/22 00:06:39;;;;;;;1.67;1.10;;;;;;;12.88;73.49;100605.81;6186661;23;20463;-71
2021/06/22 00:09:04;;;;;;;4.18;1.73;;;;;;;12.86;73.83;100605.25;6208515;23;20047;-73
2021/06/22 00:11:30;;;;;;;1.52;1.27;;;;;;;12.86;73.41;100603.31;6212196;23;20008;-69
2021/06/22 00:13:55;;;;;;;1.60;1.50;;;;;;;12.81;74.02;100603.34;6212646;23;20008;-72
2021/06/22 00:16:21;;;;;;;2.10;1.38;;;;;;;12.75;73.74;100602.50;6181641;23;20432;-72
2021/06/22 00:18:46;;;;;;;3.97;1.27;;;;;;;12.72;74.40;100605.81;6189263;23;20009;-72
2021/06/22 00:21:12;;;;;;;2.92;2.45;;;;;;;12.70;74.29;100610.75;6239131;23;20009;-71
2021/06/22 00:23:37;;;;;;;1.48;1.30;;;;;;;12.65;74.20;100605.25;6211734;23;20060;-73
2021/06/22 00:26:02;;;;;;;4.70;2.30;;;;;;;12.65;74.52;100604.44;6218354;23;20004;-72
2021/06/22 00:28:28;;;;;;;6.70;1.90;;;;;;;12.59;74.02;100595.41;6192313;23;20023;-74
2021/06/22 00:30:53;;;;;;;1.92;1.42;;;;;;;12.62;74.13;100594.84;6213028;22;20004;-73
2021/06/22 00:33:19;;;;;;;6.97;1.95;;;;;;;12.56;74.28;100593.22;6248441;23;20461;-72
2021/06/22 00:35:44;;;;;;;2.30;2.03;;;;;;;12.58;74.47;100596.50;6218637;23;20004;-71
2021/06/22 00:38:10;;;;;;;1.98;1.88;;;;;;;12.53;74.87;100591.84;6214757;23;20008;-72
2021/06/22 00:40:36;;;;;;;3.20;2.17;;;;;;;12.58;74.58;100601.97;6212995;23;20420;-72
2021/06/22 00:43:01;;;;;;;2.17;1.98;;;;;;;12.57;74.83;100603.06;6239735;23;20031;-72
2021/06/22 00:45:32;;;;;;;3.50;1.83;;;;;;;12.57;74.41;100609.41;6240494;23;20011;-71
2021/06/22 00:47:58;;;;;;;2.17;1.95;;;;;;;12.56;74.36;100606.94;6242619;23;20042;-71
2021/06/22 00:50:24;;;;;;;2.47;2.28;;;;;;;12.57;74.92;100605.81;6245893;23;20082;-71
2021/06/22 00:52:50;;;;;;;2.70;2.47;;;;;;;12.59;74.56;100606.38;6249358;23;20008;-71
2021/06/22 00:55:29;;;;;;;2.28;2.00;;;;;;;12.59;74.89;100609.13;6254633;23;20063;-73
2021/06/22 00:57:58;;;;;;;2.60;2.40;;;;;;;12.59;74.71;100611.88;6228688;23;20015;-72
2021/06/22 01:00:24;;;;;;;3.63;2.35;;;;;;;12.57;74.01;100619.53;6264545;23;19980;-72
2021/06/22 01:02:49;;;;;;;3.10;2.78;;;;;;;12.53;74.32;100612.97;6270355;22;20067;-73
2021/06/22 01:05:15;;;;;;;3.78;3.42;;;;;;;12.56;74.73;100613.22;6217177;23;20027;-72
2021/06/22 01:07:42;;;;;;;4.25;3.25;;;;;;;12.56;74.36;100618.72;6257021;23;20375;-71
2021/06/22 01:10:08;;;;;;;2.85;2.65;;;;;;;12.53;74.32;100616.53;6242044;23;20014;-71
2021/06/22 01:12:33;;;;;;;2.92;2.83;;;;;;;12.55;74.24;100628.03;6248528;23;20020;-73
2021/06/22 01:14:58;;;;;;;3.65;3.45;;;;;;;12.53;73.86;100615.72;6248665;23;20420;-72
2021/06/22 01:17:24;;;;;;;3.28;3.10;;;;;;;12.52;73.87;100622.28;6246710;23;20030;-72
2021/06/22 01:19:49;;;;;;;2.97;2.78;;;;;;;12.49;74.01;100622.84;6221459;23;20011;-72
2021/06/22 01:22:15;;;;;;;3.38;3.17;;;;;;;12.47;74.29;100625.00;6244135;23;20011;-73
2021/06/22 01:24:40;;;;;;;3.08;2.88;;;;;;;12.48;73.92;100618.44;6218259;23;20090;-73
2021/06/22 01:27:07;;;;;;;3.38;3.25;;;;;;;12.49;73.76;100626.38;6218503;23;20028;-73
2021/06/22 01:29:32;;;;;;;3.15;2.78;;;;;;;12.51;74.37;100626.97;6245980;23;20451;-72
2021/06/22 01:31:58;;;;;;;3.47;3.13;;;;;;;12.51;74.01;100628.84;6243690;22;20024;-73
2021/06/22 01:34:26;;;;;;;3.90;3.30;;;;;;;12.50;74.03;100629.94;6246075;23;20779;-73
2021/06/22 01:36:54;;;;;;;4.65;3.85;;;;;;;12.38;73.95;100611.88;6244203;23;20008;-73
2021/06/22 01:39:19;;;;;;;4.13;3.83;;;;;;;12.45;74.04;100629.97;6243610;23;20410;-73
2021/06/22 01:41:45;;;;;;;5.85;4.07;;;;;;;12.38;73.54;100622.00;6190972;23;20036;-73
2021/06/22 01:44:11;;;;;;;3.83;3.53;;;;;;;12.37;73.39;100625.84;6216182;23;20012;-73
2021/06/22 01:46:37;;;;;;;3.15;3.05;;;;;;;12.35;73.96;100628.88;6219185;23;20430;-72
2021/06/22 01:49:03;;;;;;;3.75;3.47;;;;;;;12.32;73.93;100623.91;6215363;23;20023;-72
2021/06/22 01:51:29;;;;;;;4.15;3.95;;;;;;;12.29;73.24;100623.63;6241066;23;20011;-72
2021/06/22 01:54:00;;;;;;;6.55;4.57;;;;;;;12.28;73.87;100622.81;6237953;23;20000;-71
2021/06/22 01:56:29;;;;;;;5.60;4.18;;;;;;;12.28;73.80;100627.47;6245384;23;20099;-74
2021/06/22 01:58:55;;;;;;;6.35;4.28;;;;;;;12.22;73.66;100630.22;6247672;23;20431;-74
2021/06/22 02:01:21;;;;;;;3.83;3.63;;;;;;;12.24;74.24;100635.44;6220159;23;20039;-76
2021/06/22 02:03:47;;;;;;;5.55;4.25;;;;;;;12.23;74.01;100636.50;6240155;23;20326;-76
2021/06/22 02:06:13;;;;;;;4.40;4.20;;;;;;;12.21;73.54;100644.19;6250395;23;20113;-74
2021/06/22 02:08:39;;;;;;;4.15;3.85;;;;;;;12.19;73.64;100640.88;6197669;23;20028;-73
2021/06/22 02:11:05;;;;;;;6.63;5.53;;;;;;;12.14;73.81;100627.19;6258367;23;20012;-75
2021/06/22 02:13:31;;;;;;;4.70;4.40;;;;;;;12.14;73.64;100638.97;6256152;23;20008;-74
2021/06/22 02:15:56;;;;;;;5.30;4.93;;;;;;;12.14;73.84;100640.91;6227915;23;20004;-75
2021/06/22 02:18:25;;;;;;;10.65;4.38;;;;;;;12.11;73.85;100642.25;6253319;23;20010;-75
2021/06/22 02:20:50;;;;;;;4.95;4.75;;;;;;;12.07;74.08;100637.59;6231371;23;20015;-76
2021/06/22 02:23:16;;;;;;;4.90;4.70;;;;;;;12.07;73.97;100638.41;6200243;23;20004;-74
2021/06/22 02:25:41;;;;;;;4.72;4.43;;;;;;;12.03;74.26;100638.13;6196253;23;20012;-76
2021/06/22 02:28:20;;;;;;;4.82;4.53;;;;;;;12.03;74.35;100638.13;6193805;23;20012;-77
2021/06/22 02:30:47;;;;;;;5.05;4.57;;;;;;;12.07;74.68;100637.59;6252526;22;20008;-78
2021/06/22 02:33:18;;;;;;;4.55;4.35;;;;;;;12.07;74.48;100643.06;6253208;23;20124;-76
2021/06/22 02:36:07;;;;;;;6.47;5.85;;;;;;;12.09;74.35;100646.34;6220477;23;20423;-75
2021/06/22 02:39:18;;;;;;;4.95;4.65;;;;;;;12.09;74.03;100640.88;6243106;23;20004;-75
2021/06/22 02:45:31;;;;;;;5.38;4.88;;;;;;;12.09;74.34;100658.16;6245778;23;20019;-72
2021/06/22 02:47:57;;;;;;;5.05;4.30;;;;;;;12.07;74.58;100660.31;6244971;23;20015;-72
2021/06/22 02:50:22;;;;;;;5.75;4.03;;;;;;;12.10;74.73;100656.22;6256154;23;20087;-73
2021/06/22 02:52:48;;;;;;;4.88;4.57;;;;;;;12.09;74.53;100663.63;6263994;22;20088;-71
2021/06/22 02:55:18;;;;;;;4.93;4.63;;;;;;;12.08;74.66;100661.16;6234946;23;20052;-71
2021/06/22 02:57:53;;;;;;;4.68;4.38;;;;;;;12.10;74.53;100658.97;6233679;23;20008;-73
2021/06/22 03:05:54;;;;;;;5.30;4.90;;;;;;;12.04;74.72;100656.19;6240703;22;20346;-73
2021/06/22 03:15:31;;;;;;;7.88;5.25;;;;;;;12.13;74.68;100677.63;6083256;23;20077;-73
2021/06/22 03:18:31;;;;;;;;;;;;;;;;;;;;;
2021/06/22 03:25:05;;;;;;;5.32;4.93;;;;;;;12.13;75.02;100677.63;6153755;23;20029;-73
2021/06/22 03:34:08;;;;;;;5.75;4.60;;;;;;;12.02;75.55;100680.34;6061760;23;20025;-74
2021/06/22 03:36:33;;;;;;;4.75;4.45;;;;;;;12.01;74.73;100673.19;6211883;23;20008;-73
2021/06/22 03:39:00;;;;;;;4.90;4.43;;;;;;;12.06;75.18;100677.84;6241753;23;20045;-74
2021/06/22 03:41:27;;;;;;;6.55;4.88;;;;;;;12.00;74.62;100666.09;6215013;23;20008;-74
2021/06/22 03:43:56;;;;;;;5.03;4.68;;;;;;;12.03;75.10;100671.03;6190199;23;20065;-74
2021/06/22 03:46:21;;;;;;;4.97;4.70;;;;;;;12.00;74.83;100668.81;6212711;23;20016;-74
2021/06/22 03:48:47;;;;;;;4.93;4.63;;;;;;;11.99;75.15;100669.91;6214653;23;20008;-75
2021/06/22 03:51:13;;;;;;;6.45;4.82;;;;;;;11.99;75.21;100675.38;6215561;23;20046;-74
2021/06/22 03:53:41;;;;;;;5.78;4.65;;;;;;;11.99;75.03;100675.38;6214263;23;20376;-73
2021/06/22 04:05:19;;;;;;;10.40;5.45;;;;;;;11.98;75.38;100686.63;6125368;23;20028;-75
2021/06/22 04:07:45;;;;;;;5.28;4.85;;;;;;;11.92;75.54;100683.00;6122205;23;20373;-75
2021/06/22 04:10:11;;;;;;;5.63;5.13;;;;;;;11.95;75.02;100696.19;6224268;23;20015;-77
2021/06/22 04:12:36;;;;;;;5.45;4.95;;;;;;;11.94;75.47;100699.22;6242778;23;20032;-75
2021/06/22 04:15:03;;;;;;;7.93;4.55;;;;;;;11.91;75.42;100694.25;6238186;23;20004;-74
2021/06/22 04:17:28;;;;;;;5.13;4.82;;;;;;;11.87;75.26;100693.94;6243300;23;20012;-75
2021/06/22 04:20:17;;;;;;;5.95;4.70;;;;;;;11.85;75.48;100696.13;6240579;23;20031;-74
2021/06/22 04:23:08;;;;;;;10.23;4.97;;;;;;;11.90;75.69;100701.66;6214046;23;20000;-74
2021/06/22 04:31:45;;;;;;;4.65;4.30;;;;;;;11.85;75.78;100705.16;6236089;23;20070;-73
2021/06/22 04:34:10;;;;;;;5.13;4.78;;;;;;;11.83;75.72;100709.28;6216649;23;20015;-74
2021/06/22 04:36:36;;;;;;;4.65;4.32;;;;;;;11.83;75.61;100718.31;6216130;23;20073;-72
2021/06/22 04:48:17;;;;;;;4.63;4.22;;;;;;;11.87;75.73;100710.38;6244746;23;20415;-73
2021/06/22 04:50:43;;;;;;;5.20;4.50;;;;;;;11.85;75.63;100724.34;6216406;23;20012;-74
2021/06/22 04:53:08;;;;;;;4.78;4.47;;;;;;;11.85;75.68;100723.53;6239603;23;20054;-72
2021/06/22 04:55:33;;;;;;;6.90;3.97;;;;;;;11.84;75.56;100724.63;6239380;23;20008;-73
2021/06/22 04:58:00;;;;;;;5.40;3.60;;;;;;;11.82;76.09;100724.06;6190379;23;20035;-73
2021/06/22 05:00:27;;;;;;;4.30;4.00;;;;;;;11.83;76.23;100725.72;6218235;23;20011;-72
2021/06/22 05:02:53;;;;;;;4.38;3.78;;;;;;;11.84;75.97;100732.84;6255703;23;20008;-74
2021/06/22 05:05:18;;;;;;;5.05;4.65;;;;;;;11.87;75.72;100732.28;6244496;23;20011;-73
2021/06/22 05:07:44;;;;;;;4.80;4.50;;;;;;;11.89;75.93;100735.63;6245359;23;20023;-72
2021/06/22 05:10:11;;;;;;;4.60;4.28;;;;;;;11.92;75.91;100724.13;6241410;23;20069;-73
2021/06/22 05:12:36;;;;;;;4.95;4.18;;;;;;;12.00;75.26;100731.88;6192627;23;20034;-73
2021/06/22 05:15:04;;;;;;;5.28;4.78;;;;;;;12.03;75.80;100725.00;6191402;23;20016;-73
2021/06/22 05:17:29;;;;;;;5.03;4.70;;;;;;;12.07;75.13;100730.78;6181446;23;20015;-73
2021/06/22 05:19:58;;;;;;;4.65;4.35;;;;;;;12.11;75.42;100740.13;6243867;23;20004;-73
2021/06/22 05:22:25;;;;;;;4.88;4.47;;;;;;;12.14;74.97;100736.84;6183420;23;20040;-73
2021/06/22 05:24:51;;;;;;;5.70;4.15;;;;;;;12.17;74.81;100742.59;6212114;23;20066;-73
2021/06/22 05:27:17;;;;;;;3.80;3.60;;;;;;;12.19;74.56;100750.56;6214151;23;20016;-72
2021/06/22 05:29:43;;;;;;;5.00;4.78;;;;;;;12.16;75.14;100742.88;6214544;23;20013;-74
2021/06/22 05:32:33;;;;;;;5.32;4.47;;;;;;;12.25;75.01;100757.72;6214481;23;20100;-73
2021/06/22 05:34:59;;;;;;;4.85;4.47;;;;;;;12.21;75.17;100748.38;6215201;23;20031;-73
2021/06/22 05:40:08;;;;;;;5.68;4.03;;;;;;;12.20;74.36;100743.97;6189081;23;20024;-74
2021/06/22 05:46:06;;;;;;;4.80;4.45;;;;;;;12.39;74.05;100761.59;6203540;23;20011;-74
2021/06/22 05:48:32;;;;;;;5.07;4.78;;;;;;;12.42;73.31;100770.38;6213507;23;20016;-73
2021/06/22 05:50:57;;;;;;;6.25;4.45;;;;;;;12.44;73.58;100774.50;6215344;23;20031;-74
2021/06/22 05:53:23;;;;;;;8.30;5.47;;;;;;;12.40;73.48;100770.66;6213745;23;20028;-74
2021/06/22 05:55:48;;;;;;;5.60;5.00;;;;;;;12.38;73.45;100776.41;6208672;23;20013;-73
2021/06/22 05:58:14;;;;;;;5.20;4.88;;;;;;;12.42;73.39;100781.34;6186351;23;20083;-76
2021/06/22 06:00:41;;;;;;;5.40;5.03;;;;;;;12.37;73.44;100768.44;6182258;23;20063;-78
2021/06/22 06:03:07;;;;;;;4.45;4.15;;;;;;;12.42;73.25;100782.16;6164890;23;20435;-76
2021/06/22 06:05:33;;;;;;;4.47;4.20;;;;;;;12.47;73.35;100775.88;6167893;23;20062;-77
2021/06/22 06:07:58;;;;;;;4.68;4.43;;;;;;;12.51;73.37;100771.50;6215355;23;20051;-75
2021/06/22 06:10:24;;;;;;;6.05;4.30;;;;;;;12.59;72.97;100781.94;6190765;23;20005;-76
2021/06/22 06:12:51;;;;;;;4.97;4.68;;;;;;;12.66;72.42;100782.50;6163127;23;20008;-76
2021/06/22 06:15:17;;;;;;;3.58;3.47;;;;;;;12.72;72.52;100791.59;6165276;23;20004;-77
2021/06/22 06:17:43;;;;;;;4.57;4.28;;;;;;;12.76;72.67;100781.69;6214614;23;20008;-73
2021/06/22 06:20:10;;;;;;;5.32;4.78;;;;;;;12.82;72.68;100799.00;6213141;23;20004;-76
2021/06/22 06:22:37;;;;;;;4.47;3.35;;;;;;;12.88;71.98;100795.19;6209548;23;20032;-74
2021/06/22 06:25:07;;;;;;;4.28;4.03;;;;;;;12.94;72.75;100791.34;6186863;23;20004;-73
2021/06/22 06:27:54;;;;;;;3.85;3.65;;;;;;;13.03;72.27;100803.41;6187558;23;20066;-74
2021/06/22 06:30:24;;;;;;;4.75;4.40;;;;;;;13.11;71.79;100804.78;6212653;23;20005;-73
2021/06/22 06:32:51;;;;;;;4.15;3.67;;;;;;;13.16;71.99;100802.06;6213592;23;20058;-74
2021/06/22 06:35:17;;;;;;;4.25;3.88;;;;;;;13.26;71.17;100801.25;6184578;23;20477;-74
2021/06/22 06:37:43;;;;;;;4.13;3.83;;;;;;;13.36;71.93;100811.41;6188163;23;20020;-72
2021/06/22 06:40:09;;;;;;;4.10;3.75;;;;;;;13.52;71.03;100814.97;6214213;23;20005;-72
2021/06/22 06:42:35;;;;;;;3.95;3.65;;;;;;;13.66;70.90;100810.56;6164436;23;20082;-72
2021/06/22 06:45:01;;;;;;;6.75;5.07;;;;;;;13.78;70.97;100811.09;6184794;23;20004;-75
2021/06/22 06:47:27;;;;;;;3.90;3.55;;;;;;;13.83;70.14;100814.91;6186853;23;20035;-75
2021/06/22 06:49:53;;;;;;;4.70;3.40;;;;;;;13.89;70.13;100819.31;6187685;23;20016;-74
2021/06/22 06:52:29;;;;;;;3.80;3.60;;;;;;;13.93;69.81;100807.50;6168932;23;20036;-76
2021/06/22 06:55:06;;;;;;;3.30;3.10;;;;;;;14.02;69.40;100810.50;6164815;23;20066;-82
2021/06/22 06:57:42;;;;;;;3.95;3.67;;;;;;;14.09;69.63;100813.75;6190975;23;20363;-78
2021/06/22 07:00:50;;;;;;;3.28;3.08;;;;;;;14.10;69.16;100790.63;6144378;23;20070;-77
2021/06/22 07:03:16;;;;;;;4.93;3.00;;;;;;;14.23;68.52;100816.72;6145599;23;20004;-79
2021/06/22 07:06:14;;;;;;;4.50;3.00;;;;;;;14.32;69.40;100814.22;6219442;23;20074;-77
2021/06/22 07:09:10;;;;;;;2.92;2.70;;;;;;;14.42;68.67;100822.41;6170316;23;20017;-73
2021/06/22 07:12:03;;;;;;;3.20;2.85;;;;;;;14.56;68.50;100827.31;6185583;23;20431;-76
2021/06/22 07:15:24;;;;;;;;;;;;;;;;;;;;;
2021/06/22 07:17:52;;;;;;;2.70;2.50;;;;;;;14.49;68.10;100833.13;6121978;23;20088;-77
2021/06/22 07:20:43;;;;;;;;;;;;;;;;;;;;;
2021/06/22 07:33:29;;;;;;;3.17;2.75;;;;;;;14.67;67.61;100845.44;6080851;23;20017;-76
2021/06/22 07:35:57;;;;;;;2.28;2.17;;;;;;;14.59;66.97;100821.25;6083903;23;20083;-77
2021/06/22 07:38:23;;;;;;;2.85;2.75;;;;;;;14.71;66.81;100840.22;6186764;23;20020;-76
2021/06/22 07:40:48;;;;;;;2.80;2.70;;;;;;;14.74;66.63;100840.47;6221166;23;20008;-75
2021/06/22 07:43:17;;;;;;;2.83;2.60;;;;;;;14.74;67.00;100834.97;6195812;23;20008;-78
2021/06/22 07:45:45;;;;;;;3.90;2.50;;;;;;;14.86;66.57;100842.06;6198174;23;20027;-78
2021/06/22 07:48:13;;;;;;;5.20;2.38;;;;;;;14.90;66.77;100837.63;6221414;23;20010;-75
2021/06/22 07:50:38;;;;;;;6.20;2.47;;;;;;;15.00;66.63;100843.06;6217854;23;20430;-76
2021/06/22 07:53:08;;;;;;;2.00;1.90;;;;;;;15.10;66.28;100836.66;6195987;23;20028;-76
2021/06/22 07:55:33;;;;;;;2.90;2.42;;;;;;;15.15;66.24;100834.69;6195672;23;20401;-77
2021/06/22 07:58:02;;;;;;;4.65;2.20;;;;;;;15.17;65.29;100843.50;6196116;23;20009;-75
2021/06/22 08:00:40;;;;;;;2.47;2.38;;;;;;;15.27;65.32;100837.06;6193649;23;20507;-76
2021/06/22 08:03:07;;;;;;;2.50;2.30;;;;;;;15.40;64.29;100841.09;6192208;23;20016;-77
2021/06/22 08:05:33;;;;;;;2.30;2.10;;;;;;;15.49;64.65;100836.63;6170995;23;20445;-76
2021/06/22 08:08:01;;;;;;;5.60;2.70;;;;;;;15.57;64.19;100832.41;6194677;23;20004;-76
2021/06/22 08:10:30;;;;;;;2.20;2.10;;;;;;;15.66;63.89;100833.44;6168245;23;20399;-76
2021/06/22 08:12:58;;;;;;;2.50;1.83;;;;;;;15.76;64.23;100835.28;6189299;23;20016;-76
2021/06/22 08:15:25;;;;;;;5.78;2.08;;;;;;;15.80;63.14;100828.09;6222862;23;20011;-76
2021/06/22 08:17:53;;;;;;;3.20;1.85;;;;;;;15.92;63.41;100829.66;6217467;23;20111;-76
2021/06/22 08:20:19;;;;;;;2.20;2.10;;;;;;;16.06;63.36;100836.09;6215085;23;20000;-76
2021/06/22 08:22:54;;;;;;;5.57;1.80;;;;;;;16.21;62.87;100829.59;6211238;23;20309;-76
2021/06/22 08:25:27;;;;;;;1.92;1.55;;;;;;;16.39;62.99;100836.25;6213109;23;20419;-76
2021/06/22 08:27:53;;;;;;;1.48;1.38;;;;;;;16.48;61.69;100831.72;6185902;23;20016;-75
2021/06/22 08:30:23;;;;;;;7.15;1.88;;;;;;;16.65;60.85;100846.97;6188859;23;20005;-77
2021/06/22 08:32:50;;;;;;;4.20;1.52;;;;;;;16.77;60.97;100838.25;6189557;23;20016;-75
2021/06/22 08:35:18;;;;;;;2.85;1.55;;;;;;;16.84;60.75;100831.25;6170653;23;20111;-77
2021/06/22 08:37:44;;;;;;;4.13;1.70;;;;;;;16.93;59.68;100832.22;6198272;23;20000;-76
2021/06/22 08:40:13;;;;;;;1.90;1.20;;;;;;;17.10;59.56;100836.41;6220259;23;20023;-75
2021/06/22 08:42:40;;;;;;;1.38;1.27;;;;;;;17.24;58.92;100842.84;6192706;23;20075;-76
2021/06/22 08:45:08;;;;;;;2.03;1.90;;;;;;;17.20;57.61;100829.88;6195163;23;20438;-77
2021/06/22 08:47:34;;;;;;;2.80;1.23;;;;;;;17.26;57.46;100843.34;6196414;23;20004;-79
2021/06/22 08:50:08;;;;;;;5.00;1.65;;;;;;;17.22;57.32;100834.00;6221794;23;20016;-76
2021/06/22 08:52:36;;;;;;;9.27;3.58;;;;;;;17.39;57.76;100832.63;6223773;23;20007;-76
2021/06/22 08:55:05;;;;;;;3.88;1.70;;;;;;;17.54;57.72;100828.81;6221768;23;20042;-76
2021/06/22 08:57:32;;;;;;;2.10;1.33;;;;;;;17.64;55.87;100828.63;6198114;23;20070;-77
2021/06/22 08:59:58;;;;;;;1.85;0.90;;;;;;;17.77;55.87;100838.88;6222130;23;20011;-76
2021/06/22 09:02:33;;;;;;;1.17;0.93;;;;;;;17.92;54.46;100848.88;6213620;23;20012;-78
2021/06/22 09:04:59;;;;;;;;;;;;;;;18.15;53.53;100843.47;6224212;23;20031;-76
2021/06/22 09:07:42;;;;;;;;;;;;;;;18.36;53.81;100848.59;6200686;23;20303;-75
2021/06/22 09:10:08;;;;;;;1.52;1.00;;;;;;;18.33;53.64;100838.13;6200801;23;19974;-78
2021/06/22 09:12:34;;;;;;;1.20;0.70;;;;;;;18.45;52.75;100852.25;6202916;23;20004;-77
2021/06/22 09:15:03;;;;;;;2.90;0.70;;;;;;;18.42;52.04;100847.34;6175162;23;20371;-76
2021/06/22 09:17:35;;;;;;;0.80;0.60;;;;;;;18.52;50.29;100844.38;6200059;23;20008;-77
2021/06/22 09:20:00;;;;;;;4.18;0.80;;;;;;;18.61;50.68;100842.50;6225938;23;19997;-81
2021/06/22 09:22:27;;;;;;;0.98;0.73;;;;;;;18.91;50.32;100859.63;6174619;23;20063;-79
2021/06/22 09:25:09;;;;;;;1.70;1.00;;;;;;;19.06;49.45;100852.91;6176418;23;20008;-77
2021/06/22 09:27:54;;;;;;;0.95;0.75;;;;;;;19.13;48.69;100856.06;6226586;23;20364;-79
2021/06/22 09:30:37;;;;;;;2.20;1.05;;;;;;;19.19;47.99;100865.06;6166985;23;20013;-77
2021/06/22 09:33:22;;;;;;;;;;;;;;;;;;;;;
2021/06/22 09:36:25;;;;;;;;;;;;;;;;;;;;;
2021/06/22 09:39:04;;;;;;;1.77;0.90;;;;;;;19.49;46.30;100857.13;6189639;23;20036;-79
2021/06/22 09:41:56;;;;;;;2.17;0.90;;;;;;;19.68;47.02;100865.25;6193205;23;20039;-78
2021/06/22 09:44:37;;;;;;;;;;;;;;;;;;;;;
2021/06/22 09:47:14;;;;;;;;;;;;;;;;;;;;;
2021/06/22 09:49:40;;;;;;;5.80;0.68;;;;;;;20.33;44.35;100869.34;6197207;23;20440;-78
2021/06/22 09:52:16;;;;;;;1.00;0.55;;;;;;;20.45;45.04;100851.25;6193487;23;20005;-78
2021/06/22 09:54:41;;;;;;;0.55;0.50;;;;;;;20.56;44.24;100864.50;6198230;23;20005;-78
2021/06/22 09:57:25;;;;;;;0.52;0.40;;;;;;;20.70;44.63;100855.25;6193369;23;20032;-79
2021/06/22 10:00:08;;;;;;;3.33;0.60;;;;;;;20.95;44.64;100856.41;6195936;23;20591;-80
2021/06/22 10:02:51;;;;;;;0.75;0.60;;;;;;;21.22;44.75;100860.84;6194580;23;20005;-79
2021/06/22 10:05:18;;;;;;;2.03;0.43;;;;;;;21.39;44.09;100867.53;6194585;23;20001;-81
2021/06/22 10:07:43;;;;;;;0.65;0.55;;;;;;;21.33;42.41;100860.50;6195670;23;20020;-79
2021/06/22 10:10:12;;;;;;;2.03;0.40;;;;;;;21.29;42.66;100865.94;6197164;23;20005;-78
2021/06/22 10:12:41;;;;;;;1.30;0.60;;;;;;;21.41;43.53;100862.47;6194840;23;20013;-79
2021/06/22 10:15:16;;;;;;;1.50;0.60;;;;;;;21.68;42.95;100861.31;6195528;23;20012;-78
2021/06/22 10:17:44;;;;;;;1.60;0.57;;;;;;;22.07;42.67;100856.59;6170128;23;20501;-79
2021/06/22 10:20:11;;;;;;;0.93;0.60;;;;;;;22.57;41.34;100862.63;6144942;23;20420;-79
2021/06/22 10:22:43;;;;;;;0.40;0.38;;;;;;;23.26;41.24;100854.91;6191297;23;20055;-79
2021/06/22 10:25:14;;;;;;;2.13;0.60;;;;;;;23.98;38.82;100855.50;6190856;23;20424;-79
2021/06/22 10:27:40;;;;;;;1.40;0.70;;;;;;;23.92;37.06;100875.63;6193614;23;20524;-77
2021/06/22 10:30:10;;;;;;;0.88;0.70;;;;;;;24.16;38.26;100883.22;6193363;23;20005;-79
2021/06/22 10:32:36;;;;;;;1.42;0.50;;;;;;;24.06;37.09;100876.13;6195732;23;20079;-78
2021/06/22 10:35:16;;;;;;;0.50;0.43;;;;;;;23.70;37.05;100874.88;6193956;23;20005;-77
2021/06/22 10:37:57;;;;;;;0.82;0.50;;;;;;;23.74;37.74;100883.34;6194268;23;20076;-78
2021/06/22 10:40:30;;;;;;;6.53;0.60;;;;;;;23.97;38.72;100867.84;6167044;23;20088;-75
2021/06/22 10:43:01;;;;;;;0.73;0.43;;;;;;;24.39;37.20;100884.41;6167574;23;20432;-78
2021/06/22 10:45:30;;;;;;;0.47;0.40;;;;;;;24.52;37.14;100887.22;6193689;23;20004;-76
2021/06/22 10:48:00;;;;;;;0.82;0.30;;;;;;;25.12;37.12;100870.69;6143661;23;20009;-77
2021/06/22 10:50:25;;;;;;;0.80;0.30;;;;;;;25.39;35.92;100887.88;6189811;23;20007;-79
2021/06/22 10:53:21;;;;;;;1.10;0.70;;;;;;;24.82;34.54;100890.56;6194855;23;20001;-76
2021/06/22 10:55:50;;;;;;;0.40;0.38;;;;;;;24.30;35.68;100889.31;6160563;23;20405;-75
2021/06/22 10:58:18;;;;;;;1.38;0.47;;;;;;;24.10;36.23;100888.22;6169500;23;20329;-76
2021/06/22 11:00:48;;;;;;;1.10;0.35;;;;;;;24.78;37.81;100889.66;6185724;23;20025;-76
2021/06/22 11:03:31;;;;;;;0.35;0.30;;;;;;;25.84;36.13;100881.13;6194573;23;20008;-75
2021/06/22 11:06:12;;;;;;;2.22;0.90;;;;;;;27.05;34.07;100878.06;6192303;23;20004;-76
2021/06/22 11:08:42;;;;;;;1.75;0.70;;;;;;;27.54;30.81;100877.50;6191356;23;20044;-75
2021/06/22 11:11:07;;;;;;;0.55;0.45;;;;;;;27.20;29.27;100884.78;6194187;23;20091;-74
2021/06/22 11:13:37;;;;;;;0.35;0.25;;;;;;;26.75;30.62;100879.44;6194954;23;20075;-76
2021/06/22 11:16:22;;;;;;;1.88;0.40;;;;;;;26.57;30.47;100893.00;6166911;23;20005;-75
2021/06/22 11:21:28;;;;;;;1.05;0.57;;;;;;;26.39;31.02;100905.78;6193487;23;20436;-75
2021/06/22 11:24:08;;;;;;;1.95;0.43;;;;;;;26.84;31.67;100904.47;6165903;23;20004;-75
2021/06/22 11:26:49;;;;;;;1.13;0.43;;;;;;;27.78;30.13;100896.00;6165081;23;20012;-75
2021/06/22 11:29:18;;;;;;;0.60;0.40;;;;;;;27.65;29.59;100909.41;6162338;23;20069;-75
2021/06/22 11:31:53;;;;;;;0.47;0.35;;;;;;;27.18;29.91;100902.00;6194062;23;20495;-75
2021/06/22 11:34:21;;;;;;;0.40;0.40;;;;;;;26.43;30.08;100884.22;6165077;23;20040;-75
2021/06/22 11:36:49;;;;;;;0.80;0.60;;;;;;;25.64;30.79;100890.56;6165233;23;20005;-76
2021/06/22 11:39:51;;;;;;;0.60;0.40;;;;;;;25.01;31.63;100903.13;6211897;23;20095;-75
2021/06/22 11:42:17;;;;;;;1.95;0.55;;;;;;;24.28;32.43;100915.97;6192095;23;20004;-76
2021/06/22 11:45:28;;;;;;;3.83;0.60;;;;;;;24.41;32.89;100903.63;6199297;23;20035;-76
2021/06/22 11:47:55;;;;;;;1.25;0.80;;;;;;;24.22;32.65;100902.22;6191596;23;20083;-75
2021/06/22 11:50:28;;;;;;;4.93;1.13;;;;;;;23.82;33.27;100908.38;6221492;23;20004;-75
2021/06/22 11:53:10;;;;;;;1.50;0.70;;;;;;;23.32;33.89;100909.38;6225371;23;20024;-75
2021/06/22 11:55:42;;;;;;;4.95;0.60;;;;;;;22.65;34.43;100893.22;6221970;23;20008;-76
2021/06/22 11:58:16;;;;;;;0.80;0.63;;;;;;;22.28;35.55;100889.28;6223733;23;20000;-75
2021/06/22 12:00:41;;;;;;;4.38;0.98;;;;;;;22.05;36.08;100897.06;6223307;23;20008;-75
2021/06/22 12:03:07;;;;;;;1.42;0.65;;;;;;;21.67;36.94;100884.72;6198485;23;20004;-74
2021/06/22 12:05:35;;;;;;;0.40;0.40;;;;;;;21.50;37.68;100881.94;6202654;23;20066;-75
2021/06/22 12:08:04;;;;;;;1.08;0.40;;;;;;;21.52;38.08;100899.16;6203290;23;20011;-74
2021/06/22 12:10:49;;;;;;;2.13;0.38;;;;;;;21.56;37.85;100900.13;6199834;23;20088;-75
2021/06/22 12:13:27;;;;;;;2.40;1.20;;;;;;;21.63;37.79;100899.63;6214541;23;20001;-75
2021/06/22 12:15:56;;;;;;;0.32;0.30;;;;;;;21.75;38.14;100889.44;6197298;23;20115;-75
2021/06/22 12:18:33;;;;;;;1.85;0.30;;;;;;;22.82;39.61;100903.47;6191758;23;20015;-76
2021/06/22 12:21:03;;;;;;;0.40;0.30;;;;;;;25.15;37.26;100903.56;6192343;23;20031;-74
2021/06/22 12:23:28;;;;;;;3.25;0.43;;;;;;;27.62;35.69;100900.91;6186094;23;20315;-75
2021/06/22 12:25:54;;;;;;;2.35;0.55;;;;;;;28.46;30.74;100904.03;6163365;23;20011;-75
2021/06/22 12:28:24;;;;;;;1.02;0.38;;;;;;;28.04;29.31;100905.75;6190783;23;20070;-76
2021/06/22 12:30:56;;;;;;;0.50;0.40;;;;;;;27.14;28.93;100917.94;6217183;23;20412;-73
2021/06/22 12:33:28;;;;;;;4.53;0.70;;;;;;;25.89;29.38;100914.50;6218351;23;20387;-74
2021/06/22 12:36:01;;;;;;;3.63;0.55;;;;;;;24.72;30.85;100919.84;6219933;23;20005;-74
2021/06/22 12:38:29;;;;;;;3.97;0.50;;;;;;;23.79;32.15;100923.03;6191515;23;20066;-75
2021/06/22 12:40:59;;;;;;;0.93;0.70;;;;;;;23.01;33.05;100913.31;6191305;23;20004;-80
2021/06/22 12:43:48;;;;;;;1.70;0.60;;;;;;;22.55;34.52;100909.53;6188100;23;20424;-73
2021/06/22 12:46:43;;;;;;;0.40;0.40;;;;;;;22.36;35.78;100919.09;6189466;23;20070;-73
2021/06/22 12:49:15;;;;;;;2.90;0.73;;;;;;;22.41;36.22;100915.31;6214992;23;20456;-73
2021/06/22 12:51:43;;;;;;;1.95;0.57;;;;;;;22.68;36.93;100919.63;6213317;23;20080;-74
2021/06/22 12:54:11;;;;;;;0.82;0.50;;;;;;;23.14;35.97;100895.56;6208640;23;20008;-74
2021/06/22 12:56:56;;;;;;;1.13;0.70;;;;;;;23.73;35.94;100912.41;6217253;23;20000;-73
2021/06/22 12:59:23;;;;;;;1.63;0.60;;;;;;;23.81;34.01;100901.16;6194242;23;20031;-71
2021/06/22 13:02:09;;;;;;;0.30;0.30;;;;;;;23.90;34.14;100911.47;6203005;23;20051;-74